createdAt,value
2022-07-28T00:03:33.579Z,75.54
2022-07-28T00:08:35.253Z,75.51
2022-07-28T00:13:37.050Z,75.94
2022-07-28T00:18:39.219Z,75.86
2022-07-28T00:23:40.883Z,76.33
2022-07-28T00:28:42.548Z,76.54
2022-07-28T00:33:44.180Z,76.75
2022-07-28T00:38:45.988Z,77.14
2022-07-28T00:43:51.827Z,78.63
2022-07-28T00:48:55.466Z,78.50
2022-07-28T00:53:57.660Z,78.27
2022-07-28T00:58:59.552Z,78.46
2022-07-28T01:04:02.886Z,77.91
2022-07-28T01:09:44.404Z,78.71
2022-07-28T01:14:52.507Z,80.82
2022-07-28T01:20:11.829Z,80.50
2022-07-28T01:25:23.632Z,80.14
2022-07-28T01:30:41.956Z,79.22
2022-07-28T01:35:54.160Z,80.06
2022-07-28T01:40:57.533Z,80.56
2022-07-28T01:46:01.362Z,80.62
2022-07-28T01:51:04.392Z,81.38
2022-07-28T01:56:08.108Z,81.65
2022-07-28T02:01:11.849Z,81.52
2022-07-28T02:06:16.124Z,82.40
2022-07-28T02:11:36.229Z,82.86
2022-07-28T02:16:41.789Z,82.45
2022-07-28T02:21:44.554Z,82.04
2022-07-28T02:26:51.228Z,82.37
2022-07-28T02:32:02.046Z,82.21
2022-07-28T02:37:04.785Z,82.07
2022-07-28T02:42:12.858Z,82.54
2022-07-28T02:47:19.117Z,82.55
2022-07-28T02:52:24.112Z,82.53
2022-07-28T02:57:26.983Z,83.23
2022-07-28T03:02:30.882Z,83.80
2022-07-28T03:07:33.375Z,84.46
2022-07-28T03:12:35.855Z,85.34
2022-07-28T03:17:37.517Z,84.26
2022-07-28T03:22:40.160Z,84.24
2022-07-28T03:27:45.791Z,86.31
2022-07-28T03:32:52.564Z,87.41
2022-07-28T03:37:55.569Z,87.25
2022-07-28T03:42:58.030Z,88.18
2022-07-28T03:47:59.676Z,89.15
2022-07-28T03:53:05.286Z,88.43
2022-07-28T03:58:06.931Z,88.58
2022-07-28T04:03:36.375Z,87.55
2022-07-28T04:08:31.005Z,86.05
2022-07-28T04:13:32.765Z,84.74
2022-07-28T04:18:34.683Z,84.15
2022-07-28T04:23:36.351Z,81.55
2022-07-28T04:28:38.002Z,78.57
2022-07-28T04:33:40.126Z,76.27
2022-07-28T04:38:42.333Z,76.26
2022-07-28T04:43:45.463Z,77.38
2022-07-28T04:48:47.291Z,75.62
2022-07-28T04:53:49.035Z,73.44
2022-07-28T04:58:50.732Z,72.83
2022-07-28T05:03:52.431Z,71.29
2022-07-28T05:08:54.101Z,69.05
2022-07-28T05:13:56.061Z,74.05
2022-07-28T05:18:57.696Z,71.57
2022-07-28T05:23:59.415Z,71.69
2022-07-28T05:29:01.316Z,69.50
2022-07-28T05:34:03.089Z,63.55
2022-07-28T05:39:04.775Z,65.55
2022-07-28T05:44:06.422Z,67.88
2022-07-28T05:49:08.094Z,70.43
2022-07-28T05:54:09.810Z,70.85
2022-07-28T05:59:11.487Z,65.42
2022-07-28T06:04:29.280Z,65.49
2022-07-28T06:09:31.372Z,63.41
2022-07-28T06:14:33.122Z,61.91
2022-07-28T06:19:34.820Z,59.89
2022-07-28T06:24:37.160Z,56.27
2022-07-28T06:29:38.830Z,53.40
2022-07-28T06:34:41.611Z,51.71
2022-07-28T06:39:43.255Z,52.57
2022-07-28T06:44:58.323Z,54.68
2022-07-28T06:50:00.898Z,55.91
2022-07-28T06:55:03.991Z,54.15
2022-07-28T07:00:08.432Z,51.97
2022-07-28T07:05:12.106Z,50.02
2022-07-28T07:10:13.931Z,48.82
2022-07-28T07:15:15.796Z,47.76
2022-07-28T07:20:18.107Z,47.99
2022-07-28T07:25:20.181Z,47.38
2022-07-28T07:30:22.249Z,46.56
2022-07-28T07:35:23.932Z,44.97
2022-07-28T07:40:25.600Z,39.29
2022-07-28T07:45:27.499Z,38.01
2022-07-28T07:50:29.968Z,35.17
2022-07-28T07:55:37.427Z,34.06
2022-07-28T08:00:39.612Z,36.81
2022-07-28T08:05:41.415Z,35.11
2022-07-28T08:10:43.072Z,32.30
2022-07-28T08:15:45.007Z,30.38
2022-07-28T08:20:46.788Z,31.88
2022-07-28T08:25:48.535Z,30.73
2022-07-28T08:30:50.237Z,29.63
2022-07-28T08:35:51.926Z,29.22
2022-07-28T08:40:56.716Z,28.48
2022-07-28T08:46:01.273Z,26.80
2022-07-28T08:51:05.359Z,30.91
2022-07-28T08:56:10.010Z,27.45
2022-07-28T09:01:12.149Z,29.53
2022-07-28T09:06:13.957Z,28.71
2022-07-28T09:11:15.663Z,25.62
2022-07-28T09:16:18.091Z,24.58
2022-07-28T09:21:20.142Z,31.08
2022-07-28T09:26:21.936Z,30.21
2022-07-28T09:31:26.642Z,28.74
2022-07-28T09:36:30.808Z,27.04
2022-07-28T09:41:49.369Z,29.55
2022-07-28T09:46:51.632Z,29.82
2022-07-28T09:52:04.175Z,26.86
2022-07-28T09:57:10.749Z,28.49
2022-07-28T10:02:13.726Z,28.56
2022-07-28T10:07:17.277Z,29.33
2022-07-28T10:12:21.933Z,30.19
2022-07-28T10:17:29.519Z,27.55
2022-07-28T10:22:37.186Z,29.72
2022-07-28T10:27:42.587Z,28.87
2022-07-28T10:32:45.805Z,28.57
2022-07-28T10:37:59.378Z,28.27
2022-07-28T10:43:01.329Z,26.54
2022-07-28T10:48:05.212Z,25.60
2022-07-28T10:53:08.032Z,26.04
2022-07-28T10:58:38.691Z,25.56
2022-07-28T11:03:47.213Z,26.27
2022-07-28T11:08:52.599Z,27.29
2022-07-28T11:13:54.414Z,28.24
2022-07-28T11:19:40.425Z,27.82
2022-07-28T11:24:57.824Z,27.63
2022-07-28T11:30:00.018Z,24.99
2022-07-28T11:35:08.856Z,25.86
2022-07-28T11:40:31.120Z,27.98
2022-07-28T11:45:39.340Z,26.55
2022-07-28T11:50:43.344Z,28.85
2022-07-28T11:55:55.930Z,25.69
2022-07-28T12:01:18.465Z,25.27
2022-07-28T12:06:28.846Z,26.48
2022-07-28T12:11:34.819Z,27.18
2022-07-28T12:16:40.014Z,26.32
2022-07-28T12:21:49.039Z,27.36
2022-07-28T12:26:51.109Z,27.58
2022-07-28T12:32:02.792Z,29.94
2022-07-28T12:37:09.687Z,28.65
2022-07-28T12:42:13.121Z,29.04
2022-07-28T12:47:17.676Z,27.75
2022-07-28T12:52:21.818Z,28.58
2022-07-28T12:57:49.975Z,29.55
2022-07-28T13:02:56.249Z,29.12
2022-07-28T13:08:06.028Z,27.87
2022-07-28T13:13:08.011Z,27.76
2022-07-28T13:18:09.661Z,27.88
2022-07-28T13:23:11.309Z,28.39
2022-07-28T13:28:27.069Z,29.06
2022-07-28T13:33:28.893Z,29.37
2022-07-28T13:38:31.192Z,29.50
2022-07-28T13:43:36.306Z,31.42
2022-07-28T13:48:57.866Z,31.65
2022-07-28T13:54:01.414Z,31.54
2022-07-28T13:59:03.413Z,31.73
2022-07-28T14:04:14.659Z,31.71
2022-07-28T14:09:21.079Z,32.10
2022-07-28T14:14:25.159Z,31.88
2022-07-28T14:19:38.960Z,31.32
2022-07-28T14:24:44.125Z,31.89
2022-07-28T14:29:45.867Z,29.91
2022-07-28T14:34:47.549Z,31.44
2022-07-28T14:39:49.194Z,30.98
2022-07-28T14:44:50.903Z,30.59
2022-07-28T14:49:57.951Z,31.21
2022-07-28T14:55:00.297Z,30.53
2022-07-28T15:00:02.188Z,30.72
2022-07-28T15:05:04.378Z,30.80
2022-07-28T15:10:06.715Z,31.52
2022-07-28T15:15:09.148Z,31.66
2022-07-28T15:20:11.430Z,31.16
2022-07-28T15:25:13.120Z,31.92
2022-07-28T15:30:14.819Z,32.12
2022-07-28T15:35:18.409Z,32.07
2022-07-28T15:40:20.265Z,31.57
2022-07-28T15:45:21.917Z,32.39
2022-07-28T15:50:23.811Z,31.85
2022-07-28T15:55:25.522Z,32.43
2022-07-28T16:00:27.736Z,32.20
2022-07-28T16:05:29.951Z,32.92
2022-07-28T16:10:33.497Z,32.21
2022-07-28T16:15:35.275Z,32.21
2022-07-28T16:20:37.900Z,32.63
2022-07-28T16:25:44.797Z,32.42
2022-07-28T16:30:48.029Z,32.63
2022-07-28T16:35:49.785Z,33.56
2022-07-28T16:40:54.138Z,33.41
2022-07-28T16:45:55.928Z,33.77
2022-07-28T16:50:57.646Z,33.94
2022-07-28T16:55:59.398Z,34.25
2022-07-28T17:01:01.103Z,33.99
2022-07-28T17:06:03.830Z,34.20
2022-07-28T17:11:05.496Z,34.01
2022-07-28T17:16:07.288Z,33.96
2022-07-28T17:21:09.006Z,34.00
2022-07-28T17:31:36.647Z,34.01
2022-07-28T17:36:41.311Z,34.34
2022-07-28T17:41:43.871Z,34.27
2022-07-28T17:46:46.773Z,34.53
2022-07-28T17:51:48.546Z,34.30
2022-07-28T17:56:50.421Z,34.57
2022-07-28T18:01:52.442Z,34.63
2022-07-28T18:06:54.112Z,34.84
2022-07-28T18:11:58.819Z,34.36
2022-07-28T18:17:00.659Z,34.47
2022-07-28T18:22:02.310Z,34.38
2022-07-28T18:27:04.195Z,35.16
2022-07-28T18:32:08.594Z,35.15
2022-07-28T18:37:15.150Z,35.79
2022-07-28T18:42:17.649Z,35.59
2022-07-28T18:47:20.089Z,35.80
2022-07-28T18:52:23.072Z,35.64
2022-07-28T18:57:24.707Z,37.16
2022-07-28T19:02:27.483Z,38.88
2022-07-28T19:07:30.020Z,38.67
2022-07-28T19:12:31.748Z,40.15
2022-07-28T19:17:34.105Z,40.66
2022-07-28T19:22:35.747Z,41.02
2022-07-28T19:27:38.290Z,41.49
2022-07-28T19:32:41.837Z,42.59
2022-07-28T19:37:44.145Z,43.34
2022-07-28T19:42:48.388Z,44.18
2022-07-28T19:47:50.269Z,44.20
2022-07-28T19:52:52.122Z,46.77
2022-07-28T19:57:59.314Z,47.28
2022-07-28T20:03:01.070Z,48.14
2022-07-28T20:08:02.821Z,47.46
2022-07-28T20:13:04.609Z,48.93
2022-07-28T20:18:06.261Z,49.34
2022-07-28T20:23:07.937Z,49.38
2022-07-28T20:28:09.790Z,50.69
2022-07-28T20:33:11.433Z,51.35
2022-07-28T20:38:13.104Z,51.58
2022-07-28T20:43:14.746Z,53.54
2022-07-28T20:48:16.402Z,52.84
2022-07-28T20:53:18.100Z,54.32
2022-07-28T20:58:19.805Z,53.76
2022-07-28T21:03:22.311Z,56.20
2022-07-28T21:08:23.997Z,54.11
2022-07-28T21:13:25.817Z,55.10
2022-07-28T21:18:27.593Z,56.89
2022-07-28T21:23:29.378Z,56.28
2022-07-28T21:28:49.530Z,56.91
2022-07-28T21:33:52.372Z,56.42
2022-07-28T21:38:54.158Z,58.18
2022-07-28T21:43:58.695Z,58.51
2022-07-28T21:49:03.977Z,57.69
2022-07-28T21:54:06.291Z,58.36
2022-07-28T21:59:07.924Z,59.08
2022-07-28T22:04:09.592Z,59.55
2022-07-28T22:09:11.247Z,60.53
2022-07-28T22:14:13.458Z,59.06
2022-07-28T22:19:15.505Z,60.17
2022-07-28T22:24:17.521Z,60.69
2022-07-28T22:29:19.540Z,58.41
2022-07-28T22:34:21.234Z,58.35
2022-07-28T22:39:22.896Z,59.38
2022-07-28T22:44:24.654Z,60.66
2022-07-28T22:49:26.802Z,61.55
2022-07-28T22:54:28.541Z,62.60
2022-07-28T22:59:37.198Z,61.83
2022-07-28T23:04:42.105Z,61.00
2022-07-28T23:09:43.849Z,61.89
2022-07-28T23:14:45.563Z,63.07
2022-07-28T23:19:47.470Z,62.67
2022-07-28T23:24:49.162Z,62.44
2022-07-28T23:29:50.809Z,63.66
2022-07-28T23:34:52.530Z,63.04
2022-07-28T23:39:54.894Z,62.97
2022-07-28T23:44:56.594Z,65.26
2022-07-28T23:49:58.233Z,65.03
2022-07-28T23:54:59.921Z,64.54
